sensor_id;sensor_type;location;lat;lon;timestamp;P1;durP1;ratioP1;P2;durP2;ratioP2
55720;SDS011;41626;53.098;6.168;2023-04-16T00:01:38;86.95;;;36.60;;
55720;SDS011;41626;53.098;6.168;2023-04-16T00:04:04;83.70;;;35.95;;
55720;SDS011;41626;53.098;6.168;2023-04-16T00:06:29;87.63;;;36.55;;
55720;SDS011;41626;53.098;6.168;2023-04-16T00:08:56;84.28;;;36.50;;
55720;SDS011;41626;53.098;6.168;2023-04-16T00:11:22;87.70;;;34.77;;
55720;SDS011;41626;53.098;6.168;2023-04-16T00:13:47;86.27;;;34.60;;
55720;SDS011;41626;53.098;6.168;2023-04-16T00:16:13;89.15;;;37.40;;
55720;SDS011;41626;53.098;6.168;2023-04-16T00:18:39;86.63;;;35.77;;
55720;SDS011;41626;53.098;6.168;2023-04-16T00:21:05;92.28;;;37.33;;
55720;SDS011;41626;53.098;6.168;2023-04-16T00:23:31;81.15;;;34.05;;
55720;SDS011;41626;53.098;6.168;2023-04-16T00:25:57;77.63;;;35.60;;
55720;SDS011;41626;53.098;6.168;2023-04-16T00:28:24;75.18;;;35.17;;
55720;SDS011;41626;53.098;6.168;2023-04-16T00:30:50;83.03;;;35.50;;
55720;SDS011;41626;53.098;6.168;2023-04-16T00:33:16;80.13;;;36.47;;
55720;SDS011;41626;53.098;6.168;2023-04-16T00:35:44;76.25;;;34.20;;
55720;SDS011;41626;53.098;6.168;2023-04-16T00:38:10;81.40;;;33.47;;
55720;SDS011;41626;53.098;6.168;2023-04-16T00:40:36;92.57;;;35.90;;
55720;SDS011;41626;53.098;6.168;2023-04-16T00:43:02;85.73;;;35.20;;
55720;SDS011;41626;53.098;6.168;2023-04-16T00:45:28;78.37;;;33.00;;
55720;SDS011;41626;53.098;6.168;2023-04-16T00:47:54;84.22;;;35.58;;
55720;SDS011;41626;53.098;6.168;2023-04-16T00:50:20;86.47;;;35.47;;
55720;SDS011;41626;53.098;6.168;2023-04-16T00:52:46;86.47;;;35.65;;
55720;SDS011;41626;53.098;6.168;2023-04-16T00:55:14;84.05;;;34.03;;
55720;SDS011;41626;53.098;6.168;2023-04-16T00:57:41;89.78;;;35.38;;
55720;SDS011;41626;53.098;6.168;2023-04-16T01:00:07;88.20;;;35.35;;
55720;SDS011;41626;53.098;6.168;2023-04-16T01:02:34;96.70;;;36.55;;
55720;SDS011;41626;53.098;6.168;2023-04-16T01:05:00;77.57;;;32.90;;
55720;SDS011;41626;53.098;6.168;2023-04-16T01:07:26;84.13;;;35.38;;
55720;SDS011;41626;53.098;6.168;2023-04-16T01:09:52;67.18;;;33.53;;
55720;SDS011;41626;53.098;6.168;2023-04-16T01:12:17;72.78;;;32.30;;
55720;SDS011;41626;53.098;6.168;2023-04-16T01:14:43;75.65;;;34.03;;
55720;SDS011;41626;53.098;6.168;2023-04-16T01:17:09;76.00;;;34.28;;
55720;SDS011;41626;53.098;6.168;2023-04-16T01:19:34;70.95;;;31.25;;
55720;SDS011;41626;53.098;6.168;2023-04-16T01:22:00;74.63;;;33.73;;
55720;SDS011;41626;53.098;6.168;2023-04-16T01:24:26;64.95;;;32.88;;
55720;SDS011;41626;53.098;6.168;2023-04-16T01:26:52;66.45;;;31.27;;
55720;SDS011;41626;53.098;6.168;2023-04-16T01:29:18;67.47;;;31.23;;
55720;SDS011;41626;53.098;6.168;2023-04-16T01:31:43;67.20;;;31.25;;
55720;SDS011;41626;53.098;6.168;2023-04-16T01:34:10;71.20;;;32.28;;
55720;SDS011;41626;53.098;6.168;2023-04-16T01:36:36;68.03;;;30.98;;
55720;SDS011;41626;53.098;6.168;2023-04-16T01:39:02;71.78;;;32.05;;
55720;SDS011;41626;53.098;6.168;2023-04-16T01:41:29;66.95;;;29.60;;
55720;SDS011;41626;53.098;6.168;2023-04-16T01:43:55;75.85;;;32.05;;
55720;SDS011;41626;53.098;6.168;2023-04-16T01:46:27;73.88;;;33.88;;
55720;SDS011;41626;53.098;6.168;2023-04-16T01:48:55;76.13;;;31.48;;
55720;SDS011;41626;53.098;6.168;2023-04-16T01:51:22;82.70;;;32.67;;
55720;SDS011;41626;53.098;6.168;2023-04-16T01:53:48;68.38;;;30.95;;
55720;SDS011;41626;53.098;6.168;2023-04-16T01:56:14;70.45;;;32.20;;
55720;SDS011;41626;53.098;6.168;2023-04-16T01:58:40;75.68;;;33.33;;
55720;SDS011;41626;53.098;6.168;2023-04-16T02:01:07;71.32;;;31.70;;
55720;SDS011;41626;53.098;6.168;2023-04-16T02:03:33;77.77;;;33.30;;
55720;SDS011;41626;53.098;6.168;2023-04-16T02:05:59;66.32;;;30.10;;
55720;SDS011;41626;53.098;6.168;2023-04-16T02:08:25;62.92;;;30.15;;
55720;SDS011;41626;53.098;6.168;2023-04-16T02:10:51;69.50;;;32.53;;
55720;SDS011;41626;53.098;6.168;2023-04-16T02:13:17;70.87;;;33.33;;
55720;SDS011;41626;53.098;6.168;2023-04-16T02:15:46;74.70;;;35.17;;
55720;SDS011;41626;53.098;6.168;2023-04-16T02:18:12;77.18;;;34.55;;
55720;SDS011;41626;53.098;6.168;2023-04-16T02:20:44;79.07;;;37.20;;
55720;SDS011;41626;53.098;6.168;2023-04-16T02:23:11;71.38;;;34.78;;
55720;SDS011;41626;53.098;6.168;2023-04-16T02:25:42;83.22;;;37.78;;
55720;SDS011;41626;53.098;6.168;2023-04-16T02:28:11;72.15;;;35.88;;
55720;SDS011;41626;53.098;6.168;2023-04-16T02:30:38;77.50;;;35.80;;
55720;SDS011;41626;53.098;6.168;2023-04-16T02:33:05;80.82;;;37.40;;
55720;SDS011;41626;53.098;6.168;2023-04-16T02:35:32;89.88;;;36.85;;
55720;SDS011;41626;53.098;6.168;2023-04-16T02:38:01;85.18;;;38.25;;
55720;SDS011;41626;53.098;6.168;2023-04-16T02:40:28;82.03;;;38.67;;
55720;SDS011;41626;53.098;6.168;2023-04-16T02:42:54;88.05;;;38.05;;
55720;SDS011;41626;53.098;6.168;2023-04-16T02:45:21;83.30;;;39.25;;
55720;SDS011;41626;53.098;6.168;2023-04-16T02:47:47;91.40;;;39.40;;
55720;SDS011;41626;53.098;6.168;2023-04-16T02:50:14;92.97;;;41.97;;
55720;SDS011;41626;53.098;6.168;2023-04-16T02:52:40;96.00;;;42.20;;
55720;SDS011;41626;53.098;6.168;2023-04-16T02:55:06;91.47;;;40.58;;
55720;SDS011;41626;53.098;6.168;2023-04-16T02:57:32;88.00;;;37.83;;
55720;SDS011;41626;53.098;6.168;2023-04-16T02:59:58;85.30;;;38.47;;
55720;SDS011;41626;53.098;6.168;2023-04-16T03:02:23;84.53;;;38.37;;
55720;SDS011;41626;53.098;6.168;2023-04-16T03:04:49;76.43;;;35.93;;
55720;SDS011;41626;53.098;6.168;2023-04-16T03:07:15;82.07;;;36.90;;
55720;SDS011;41626;53.098;6.168;2023-04-16T03:09:42;82.07;;;36.45;;
55720;SDS011;41626;53.098;6.168;2023-04-16T03:12:08;83.13;;;38.03;;
55720;SDS011;41626;53.098;6.168;2023-04-16T03:14:33;80.03;;;35.92;;
55720;SDS011;41626;53.098;6.168;2023-04-16T03:16:59;84.70;;;42.03;;
55720;SDS011;41626;53.098;6.168;2023-04-16T03:19:25;83.87;;;40.17;;
55720;SDS011;41626;53.098;6.168;2023-04-16T03:21:50;93.93;;;40.20;;
55720;SDS011;41626;53.098;6.168;2023-04-16T03:24:16;84.53;;;38.17;;
55720;SDS011;41626;53.098;6.168;2023-04-16T03:26:42;92.27;;;42.13;;
55720;SDS011;41626;53.098;6.168;2023-04-16T03:29:08;95.20;;;40.93;;
55720;SDS011;41626;53.098;6.168;2023-04-16T03:31:33;102.87;;;45.07;;
55720;SDS011;41626;53.098;6.168;2023-04-16T03:33:59;78.73;;;39.10;;
55720;SDS011;41626;53.098;6.168;2023-04-16T03:36:25;101.22;;;40.63;;
55720;SDS011;41626;53.098;6.168;2023-04-16T03:38:54;85.73;;;39.00;;
55720;SDS011;41626;53.098;6.168;2023-04-16T03:41:19;78.10;;;37.80;;
55720;SDS011;41626;53.098;6.168;2023-04-16T03:43:45;85.15;;;39.95;;
55720;SDS011;41626;53.098;6.168;2023-04-16T03:46:11;78.83;;;37.43;;
55720;SDS011;41626;53.098;6.168;2023-04-16T03:48:36;93.90;;;41.20;;
55720;SDS011;41626;53.098;6.168;2023-04-16T03:51:02;83.67;;;40.90;;
55720;SDS011;41626;53.098;6.168;2023-04-16T03:53:28;101.47;;;43.00;;
55720;SDS011;41626;53.098;6.168;2023-04-16T03:55:53;93.17;;;41.80;;
55720;SDS011;41626;53.098;6.168;2023-04-16T03:58:19;87.03;;;40.95;;
55720;SDS011;41626;53.098;6.168;2023-04-16T04:00:45;88.22;;;39.95;;
55720;SDS011;41626;53.098;6.168;2023-04-16T04:03:11;90.10;;;39.27;;
55720;SDS011;41626;53.098;6.168;2023-04-16T04:05:40;80.47;;;36.92;;
55720;SDS011;41626;53.098;6.168;2023-04-16T04:08:06;83.53;;;39.95;;
55720;SDS011;41626;53.098;6.168;2023-04-16T04:10:33;89.43;;;36.22;;
55720;SDS011;41626;53.098;6.168;2023-04-16T04:13:01;81.78;;;36.42;;
55720;SDS011;41626;53.098;6.168;2023-04-16T04:15:27;74.47;;;35.10;;
55720;SDS011;41626;53.098;6.168;2023-04-16T04:17:53;86.05;;;36.30;;
55720;SDS011;41626;53.098;6.168;2023-04-16T04:20:19;73.40;;;33.80;;
55720;SDS011;41626;53.098;6.168;2023-04-16T04:22:45;72.10;;;33.23;;
55720;SDS011;41626;53.098;6.168;2023-04-16T04:25:10;72.78;;;32.75;;
55720;SDS011;41626;53.098;6.168;2023-04-16T04:27:36;70.18;;;34.85;;
55720;SDS011;41626;53.098;6.168;2023-04-16T04:30:02;68.90;;;29.77;;
55720;SDS011;41626;53.098;6.168;2023-04-16T04:32:30;72.30;;;31.65;;
55720;SDS011;41626;53.098;6.168;2023-04-16T04:34:56;78.32;;;30.92;;
55720;SDS011;41626;53.098;6.168;2023-04-16T04:37:23;72.37;;;31.53;;
55720;SDS011;41626;53.098;6.168;2023-04-16T04:39:49;83.23;;;33.33;;
55720;SDS011;41626;53.098;6.168;2023-04-16T04:42:17;83.03;;;33.40;;
55720;SDS011;41626;53.098;6.168;2023-04-16T04:44:44;73.40;;;31.73;;
55720;SDS011;41626;53.098;6.168;2023-04-16T04:47:10;73.13;;;31.08;;
55720;SDS011;41626;53.098;6.168;2023-04-16T04:49:35;75.45;;;31.70;;
55720;SDS011;41626;53.098;6.168;2023-04-16T04:52:01;69.72;;;31.38;;
55720;SDS011;41626;53.098;6.168;2023-04-16T04:54:27;75.32;;;31.38;;
55720;SDS011;41626;53.098;6.168;2023-04-16T04:56:54;73.27;;;31.70;;
55720;SDS011;41626;53.098;6.168;2023-04-16T04:59:20;68.72;;;30.88;;
55720;SDS011;41626;53.098;6.168;2023-04-16T05:01:46;68.38;;;30.17;;
55720;SDS011;41626;53.098;6.168;2023-04-16T05:04:12;64.90;;;28.10;;
55720;SDS011;41626;53.098;6.168;2023-04-16T05:06:38;63.07;;;28.17;;
55720;SDS011;41626;53.098;6.168;2023-04-16T05:09:04;52.93;;;26.17;;
55720;SDS011;41626;53.098;6.168;2023-04-16T05:11:29;64.27;;;27.80;;
55720;SDS011;41626;53.098;6.168;2023-04-16T05:13:58;61.92;;;27.48;;
55720;SDS011;41626;53.098;6.168;2023-04-16T05:16:23;70.38;;;27.38;;
55720;SDS011;41626;53.098;6.168;2023-04-16T05:18:49;60.63;;;26.92;;
55720;SDS011;41626;53.098;6.168;2023-04-16T05:21:15;72.22;;;29.23;;
55720;SDS011;41626;53.098;6.168;2023-04-16T05:23:40;61.60;;;27.13;;
55720;SDS011;41626;53.098;6.168;2023-04-16T05:26:06;73.13;;;30.00;;
55720;SDS011;41626;53.098;6.168;2023-04-16T05:28:31;62.17;;;28.90;;
55720;SDS011;41626;53.098;6.168;2023-04-16T05:30:57;65.07;;;27.97;;
55720;SDS011;41626;53.098;6.168;2023-04-16T05:33:23;66.80;;;28.83;;
55720;SDS011;41626;53.098;6.168;2023-04-16T05:35:49;79.40;;;28.80;;
55720;SDS011;41626;53.098;6.168;2023-04-16T05:38:15;77.40;;;31.00;;
55720;SDS011;41626;53.098;6.168;2023-04-16T05:40:40;66.50;;;28.67;;
55720;SDS011;41626;53.098;6.168;2023-04-16T05:43:06;70.23;;;31.07;;
55720;SDS011;41626;53.098;6.168;2023-04-16T05:45:31;70.63;;;30.63;;
55720;SDS011;41626;53.098;6.168;2023-04-16T05:48:03;66.68;;;29.45;;
55720;SDS011;41626;53.098;6.168;2023-04-16T05:50:29;77.10;;;30.42;;
55720;SDS011;41626;53.098;6.168;2023-04-16T05:52:55;67.70;;;28.67;;
55720;SDS011;41626;53.098;6.168;2023-04-16T05:55:21;68.10;;;28.07;;
55720;SDS011;41626;53.098;6.168;2023-04-16T05:57:46;81.47;;;31.67;;
55720;SDS011;41626;53.098;6.168;2023-04-16T06:00:12;74.13;;;30.07;;
55720;SDS011;41626;53.098;6.168;2023-04-16T06:02:38;70.93;;;28.85;;
55720;SDS011;41626;53.098;6.168;2023-04-16T06:05:03;66.38;;;30.48;;
55720;SDS011;41626;53.098;6.168;2023-04-16T06:07:29;73.57;;;28.42;;
55720;SDS011;41626;53.098;6.168;2023-04-16T06:09:55;67.30;;;28.73;;
55720;SDS011;41626;53.098;6.168;2023-04-16T06:12:20;69.97;;;28.47;;
55720;SDS011;41626;53.098;6.168;2023-04-16T06:14:46;60.22;;;27.30;;
55720;SDS011;41626;53.098;6.168;2023-04-16T06:17:12;62.40;;;28.45;;
55720;SDS011;41626;53.098;6.168;2023-04-16T06:19:37;76.00;;;31.02;;
55720;SDS011;41626;53.098;6.168;2023-04-16T06:22:03;67.68;;;30.20;;
55720;SDS011;41626;53.098;6.168;2023-04-16T06:24:30;72.68;;;29.80;;
55720;SDS011;41626;53.098;6.168;2023-04-16T06:26:56;65.25;;;29.58;;
55720;SDS011;41626;53.098;6.168;2023-04-16T06:29:21;71.45;;;30.15;;
55720;SDS011;41626;53.098;6.168;2023-04-16T06:31:47;71.60;;;29.45;;
55720;SDS011;41626;53.098;6.168;2023-04-16T06:34:13;69.50;;;29.75;;
55720;SDS011;41626;53.098;6.168;2023-04-16T06:36:39;69.18;;;28.83;;
55720;SDS011;41626;53.098;6.168;2023-04-16T06:39:04;65.15;;;27.33;;
55720;SDS011;41626;53.098;6.168;2023-04-16T06:41:30;53.90;;;26.15;;
55720;SDS011;41626;53.098;6.168;2023-04-16T06:43:56;53.00;;;26.05;;
55720;SDS011;41626;53.098;6.168;2023-04-16T06:46:21;52.28;;;24.77;;
55720;SDS011;41626;53.098;6.168;2023-04-16T06:48:47;44.87;;;23.77;;
55720;SDS011;41626;53.098;6.168;2023-04-16T06:51:13;50.50;;;26.27;;
55720;SDS011;41626;53.098;6.168;2023-04-16T06:53:38;57.53;;;25.43;;
55720;SDS011;41626;53.098;6.168;2023-04-16T06:56:04;58.00;;;26.03;;
55720;SDS011;41626;53.098;6.168;2023-04-16T06:58:30;55.05;;;26.73;;
55720;SDS011;41626;53.098;6.168;2023-04-16T07:00:56;53.65;;;25.90;;
55720;SDS011;41626;53.098;6.168;2023-04-16T07:03:23;51.63;;;23.95;;
55720;SDS011;41626;53.098;6.168;2023-04-16T07:05:48;57.75;;;27.17;;
55720;SDS011;41626;53.098;6.168;2023-04-16T07:08:14;51.75;;;25.67;;
55720;SDS011;41626;53.098;6.168;2023-04-16T07:10:40;50.88;;;24.00;;
55720;SDS011;41626;53.098;6.168;2023-04-16T07:13:06;55.30;;;24.95;;
55720;SDS011;41626;53.098;6.168;2023-04-16T07:15:32;54.78;;;25.63;;
55720;SDS011;41626;53.098;6.168;2023-04-16T07:17:57;51.70;;;22.75;;
55720;SDS011;41626;53.098;6.168;2023-04-16T07:20:23;47.25;;;23.55;;
55720;SDS011;41626;53.098;6.168;2023-04-16T07:22:49;52.92;;;25.02;;
55720;SDS011;41626;53.098;6.168;2023-04-16T07:25:14;48.88;;;24.60;;
55720;SDS011;41626;53.098;6.168;2023-04-16T07:27:40;37.47;;;21.17;;
55720;SDS011;41626;53.098;6.168;2023-04-16T07:30:06;43.87;;;22.20;;
55720;SDS011;41626;53.098;6.168;2023-04-16T07:32:33;46.00;;;22.33;;
55720;SDS011;41626;53.098;6.168;2023-04-16T07:34:59;48.92;;;21.95;;
55720;SDS011;41626;53.098;6.168;2023-04-16T07:37:25;46.97;;;22.02;;
55720;SDS011;41626;53.098;6.168;2023-04-16T07:39:50;46.20;;;22.00;;
55720;SDS011;41626;53.098;6.168;2023-04-16T07:42:16;44.58;;;20.92;;
55720;SDS011;41626;53.098;6.168;2023-04-16T07:44:42;42.80;;;21.05;;
55720;SDS011;41626;53.098;6.168;2023-04-16T07:47:08;49.42;;;23.33;;
55720;SDS011;41626;53.098;6.168;2023-04-16T07:49:34;54.28;;;21.33;;
55720;SDS011;41626;53.098;6.168;2023-04-16T07:51:59;57.08;;;22.63;;
55720;SDS011;41626;53.098;6.168;2023-04-16T07:54:25;46.67;;;22.33;;
55720;SDS011;41626;53.098;6.168;2023-04-16T07:56:51;49.13;;;22.13;;
55720;SDS011;41626;53.098;6.168;2023-04-16T07:59:17;48.67;;;22.50;;
55720;SDS011;41626;53.098;6.168;2023-04-16T08:01:43;50.43;;;21.57;;
55720;SDS011;41626;53.098;6.168;2023-04-16T08:04:08;43.67;;;21.70;;
55720;SDS011;41626;53.098;6.168;2023-04-16T08:06:34;47.60;;;21.67;;
55720;SDS011;41626;53.098;6.168;2023-04-16T08:08:59;41.50;;;20.65;;
55720;SDS011;41626;53.098;6.168;2023-04-16T08:11:25;41.35;;;18.67;;
55720;SDS011;41626;53.098;6.168;2023-04-16T08:13:51;40.27;;;20.63;;
55720;SDS011;41626;53.098;6.168;2023-04-16T08:16:16;33.33;;;18.07;;
55720;SDS011;41626;53.098;6.168;2023-04-16T08:18:42;38.67;;;19.73;;
55720;SDS011;41626;53.098;6.168;2023-04-16T08:21:08;36.17;;;18.27;;
55720;SDS011;41626;53.098;6.168;2023-04-16T08:23:33;33.28;;;18.48;;
55720;SDS011;41626;53.098;6.168;2023-04-16T08:25:59;36.78;;;18.58;;
55720;SDS011;41626;53.098;6.168;2023-04-16T08:28:26;42.70;;;20.53;;
55720;SDS011;41626;53.098;6.168;2023-04-16T08:30:51;41.57;;;19.17;;
55720;SDS011;41626;53.098;6.168;2023-04-16T08:33:17;35.97;;;17.03;;
55720;SDS011;41626;53.098;6.168;2023-04-16T08:35:43;39.08;;;18.90;;
55720;SDS011;41626;53.098;6.168;2023-04-16T08:38:08;44.53;;;21.53;;
55720;SDS011;41626;53.098;6.168;2023-04-16T08:40:35;39.55;;;19.70;;
55720;SDS011;41626;53.098;6.168;2023-04-16T08:43:04;34.97;;;19.02;;
55720;SDS011;41626;53.098;6.168;2023-04-16T08:45:35;42.03;;;19.67;;
55720;SDS011;41626;53.098;6.168;2023-04-16T08:48:02;40.28;;;18.40;;
55720;SDS011;41626;53.098;6.168;2023-04-16T08:50:29;41.33;;;20.73;;
55720;SDS011;41626;53.098;6.168;2023-04-16T08:52:58;35.85;;;17.95;;
55720;SDS011;41626;53.098;6.168;2023-04-16T08:55:42;37.67;;;17.77;;
55720;SDS011;41626;53.098;6.168;2023-04-16T08:58:12;38.85;;;19.25;;
55720;SDS011;41626;53.098;6.168;2023-04-16T09:00:39;38.63;;;19.23;;
55720;SDS011;41626;53.098;6.168;2023-04-16T09:03:06;42.30;;;20.65;;
55720;SDS011;41626;53.098;6.168;2023-04-16T09:05:32;39.50;;;20.35;;
55720;SDS011;41626;53.098;6.168;2023-04-16T09:07:58;39.15;;;19.13;;
55720;SDS011;41626;53.098;6.168;2023-04-16T09:10:25;43.40;;;18.60;;
55720;SDS011;41626;53.098;6.168;2023-04-16T09:12:51;35.70;;;18.08;;
55720;SDS011;41626;53.098;6.168;2023-04-16T09:15:19;36.80;;;18.50;;
55720;SDS011;41626;53.098;6.168;2023-04-16T09:17:46;38.40;;;20.35;;
55720;SDS011;41626;53.098;6.168;2023-04-16T09:20:11;41.30;;;21.02;;
55720;SDS011;41626;53.098;6.168;2023-04-16T09:22:37;38.63;;;18.85;;
55720;SDS011;41626;53.098;6.168;2023-04-16T09:25:06;38.75;;;19.70;;
55720;SDS011;41626;53.098;6.168;2023-04-16T09:27:32;39.72;;;17.73;;
55720;SDS011;41626;53.098;6.168;2023-04-16T09:29:58;41.67;;;19.33;;
55720;SDS011;41626;53.098;6.168;2023-04-16T09:32:25;37.23;;;18.90;;
55720;SDS011;41626;53.098;6.168;2023-04-16T09:34:58;32.17;;;17.88;;
55720;SDS011;41626;53.098;6.168;2023-04-16T09:37:26;38.35;;;19.10;;
55720;SDS011;41626;53.098;6.168;2023-04-16T09:39:59;38.13;;;19.67;;
55720;SDS011;41626;53.098;6.168;2023-04-16T09:42:30;38.88;;;19.95;;
55720;SDS011;41626;53.098;6.168;2023-04-16T09:45:00;32.72;;;18.13;;
55720;SDS011;41626;53.098;6.168;2023-04-16T09:47:42;31.58;;;18.80;;
55720;SDS011;41626;53.098;6.168;2023-04-16T09:50:09;33.80;;;19.27;;
55720;SDS011;41626;53.098;6.168;2023-04-16T09:52:42;40.73;;;19.53;;
55720;SDS011;41626;53.098;6.168;2023-04-16T09:55:09;37.65;;;19.75;;
55720;SDS011;41626;53.098;6.168;2023-04-16T09:57:37;33.58;;;19.98;;
55720;SDS011;41626;53.098;6.168;2023-04-16T10:00:04;35.22;;;20.38;;
55720;SDS011;41626;53.098;6.168;2023-04-16T10:02:31;36.13;;;19.52;;
55720;SDS011;41626;53.098;6.168;2023-04-16T10:04:59;43.35;;;20.95;;
55720;SDS011;41626;53.098;6.168;2023-04-16T10:07:33;40.47;;;20.92;;
55720;SDS011;41626;53.098;6.168;2023-04-16T10:10:00;34.25;;;19.02;;
55720;SDS011;41626;53.098;6.168;2023-04-16T10:12:27;40.40;;;20.40;;
55720;SDS011;41626;53.098;6.168;2023-04-16T10:14:54;36.08;;;19.55;;
55720;SDS011;41626;53.098;6.168;2023-04-16T10:17:20;37.30;;;19.20;;
55720;SDS011;41626;53.098;6.168;2023-04-16T10:19:46;39.43;;;20.17;;
55720;SDS011;41626;53.098;6.168;2023-04-16T10:22:12;40.40;;;20.25;;
55720;SDS011;41626;53.098;6.168;2023-04-16T10:24:38;35.15;;;20.17;;
55720;SDS011;41626;53.098;6.168;2023-04-16T10:27:05;32.15;;;18.45;;
55720;SDS011;41626;53.098;6.168;2023-04-16T10:29:31;32.93;;;19.13;;
55720;SDS011;41626;53.098;6.168;2023-04-16T10:31:57;33.58;;;19.27;;
55720;SDS011;41626;53.098;6.168;2023-04-16T10:34:24;38.58;;;20.42;;
55720;SDS011;41626;53.098;6.168;2023-04-16T10:36:51;41.72;;;21.23;;
55720;SDS011;41626;53.098;6.168;2023-04-16T10:39:22;37.90;;;19.58;;
55720;SDS011;41626;53.098;6.168;2023-04-16T10:42:05;38.43;;;18.60;;
55720;SDS011;41626;53.098;6.168;2023-04-16T10:44:32;32.25;;;18.25;;
55720;SDS011;41626;53.098;6.168;2023-04-16T10:46:58;32.58;;;19.38;;
55720;SDS011;41626;53.098;6.168;2023-04-16T10:49:24;32.22;;;20.05;;
55720;SDS011;41626;53.098;6.168;2023-04-16T10:56:54;38.63;;;20.45;;
55720;SDS011;41626;53.098;6.168;2023-04-16T10:59:22;39.25;;;22.65;;
55720;SDS011;41626;53.098;6.168;2023-04-16T11:01:55;39.05;;;19.88;;
55720;SDS011;41626;53.098;6.168;2023-04-16T11:07:31;38.75;;;20.30;;
55720;SDS011;41626;53.098;6.168;2023-04-16T11:09:53;38.88;;;20.38;;
55720;SDS011;41626;53.098;6.168;2023-04-16T11:17:31;40.03;;;22.23;;
55720;SDS011;41626;53.098;6.168;2023-04-16T11:20:04;41.00;;;20.92;;
55720;SDS011;41626;53.098;6.168;2023-04-16T11:22:30;45.67;;;22.35;;
55720;SDS011;41626;53.098;6.168;2023-04-16T11:25:00;39.27;;;20.40;;
55720;SDS011;41626;53.098;6.168;2023-04-16T11:27:28;37.88;;;21.30;;
55720;SDS011;41626;53.098;6.168;2023-04-16T11:29:55;37.80;;;20.55;;
55720;SDS011;41626;53.098;6.168;2023-04-16T11:32:32;36.00;;;19.63;;
55720;SDS011;41626;53.098;6.168;2023-04-16T11:34:59;40.67;;;20.02;;
55720;SDS011;41626;53.098;6.168;2023-04-16T11:37:35;35.97;;;20.05;;
55720;SDS011;41626;53.098;6.168;2023-04-16T11:40:02;39.72;;;20.73;;
55720;SDS011;41626;53.098;6.168;2023-04-16T11:42:39;35.22;;;20.30;;
55720;SDS011;41626;53.098;6.168;2023-04-16T11:45:05;39.47;;;19.70;;
55720;SDS011;41626;53.098;6.168;2023-04-16T11:47:41;34.22;;;19.30;;
55720;SDS011;41626;53.098;6.168;2023-04-16T11:50:17;30.37;;;19.67;;
55720;SDS011;41626;53.098;6.168;2023-04-16T11:52:47;27.73;;;19.33;;
55720;SDS011;41626;53.098;6.168;2023-04-16T11:55:14;32.70;;;20.05;;
55720;SDS011;41626;53.098;6.168;2023-04-16T11:57:40;35.70;;;20.17;;
55720;SDS011;41626;53.098;6.168;2023-04-16T12:00:05;30.33;;;19.13;;
55720;SDS011;41626;53.098;6.168;2023-04-16T12:02:37;33.50;;;19.27;;
55720;SDS011;41626;53.098;6.168;2023-04-16T12:05:06;32.40;;;19.90;;
55720;SDS011;41626;53.098;6.168;2023-04-16T12:07:55;31.58;;;18.92;;
55720;SDS011;41626;53.098;6.168;2023-04-16T12:10:21;36.13;;;18.80;;
55720;SDS011;41626;53.098;6.168;2023-04-16T12:12:47;32.60;;;19.30;;
55720;SDS011;41626;53.098;6.168;2023-04-16T12:15:13;31.27;;;20.50;;
55720;SDS011;41626;53.098;6.168;2023-04-16T12:17:39;28.60;;;18.45;;
55720;SDS011;41626;53.098;6.168;2023-04-16T12:20:08;31.88;;;18.95;;
55720;SDS011;41626;53.098;6.168;2023-04-16T12:22:37;36.92;;;19.25;;
55720;SDS011;41626;53.098;6.168;2023-04-16T12:25:04;38.60;;;19.58;;
55720;SDS011;41626;53.098;6.168;2023-04-16T12:27:47;33.90;;;18.40;;
55720;SDS011;41626;53.098;6.168;2023-04-16T12:30:18;30.55;;;19.10;;
55720;SDS011;41626;53.098;6.168;2023-04-16T12:32:46;33.22;;;18.00;;
55720;SDS011;41626;53.098;6.168;2023-04-16T12:35:13;29.77;;;17.33;;
55720;SDS011;41626;53.098;6.168;2023-04-16T12:37:57;31.48;;;18.40;;
55720;SDS011;41626;53.098;6.168;2023-04-16T12:40:23;34.23;;;18.53;;
55720;SDS011;41626;53.098;6.168;2023-04-16T12:42:48;32.27;;;17.43;;
55720;SDS011;41626;53.098;6.168;2023-04-16T12:45:14;29.23;;;17.43;;
55720;SDS011;41626;53.098;6.168;2023-04-16T12:47:40;20.63;;;14.90;;
55720;SDS011;41626;53.098;6.168;2023-04-16T12:50:06;28.52;;;18.52;;
55720;SDS011;41626;53.098;6.168;2023-04-16T12:52:32;25.63;;;16.73;;
55720;SDS011;41626;53.098;6.168;2023-04-16T12:54:59;25.50;;;16.38;;
55720;SDS011;41626;53.098;6.168;2023-04-16T12:57:26;25.83;;;16.70;;
55720;SDS011;41626;53.098;6.168;2023-04-16T12:59:56;27.27;;;17.52;;
55720;SDS011;41626;53.098;6.168;2023-04-16T13:02:22;24.85;;;17.88;;
55720;SDS011;41626;53.098;6.168;2023-04-16T13:04:52;22.45;;;17.23;;
55720;SDS011;41626;53.098;6.168;2023-04-16T13:07:18;29.10;;;19.37;;
55720;SDS011;41626;53.098;6.168;2023-04-16T13:09:44;28.23;;;17.85;;
55720;SDS011;41626;53.098;6.168;2023-04-16T13:12:11;26.00;;;17.63;;
55720;SDS011;41626;53.098;6.168;2023-04-16T13:14:37;28.20;;;18.57;;
55720;SDS011;41626;53.098;6.168;2023-04-16T13:17:03;25.85;;;17.77;;
55720;SDS011;41626;53.098;6.168;2023-04-16T13:19:29;27.23;;;18.25;;
55720;SDS011;41626;53.098;6.168;2023-04-16T13:21:55;23.33;;;17.20;;
55720;SDS011;41626;53.098;6.168;2023-04-16T13:24:20;26.27;;;17.75;;
55720;SDS011;41626;53.098;6.168;2023-04-16T13:26:47;25.75;;;16.63;;
55720;SDS011;41626;53.098;6.168;2023-04-16T13:29:14;28.98;;;17.50;;
55720;SDS011;41626;53.098;6.168;2023-04-16T13:31:39;25.90;;;16.08;;
55720;SDS011;41626;53.098;6.168;2023-04-16T13:34:05;21.40;;;15.67;;
55720;SDS011;41626;53.098;6.168;2023-04-16T13:36:31;30.27;;;18.70;;
55720;SDS011;41626;53.098;6.168;2023-04-16T13:38:57;23.45;;;16.30;;
55720;SDS011;41626;53.098;6.168;2023-04-16T13:41:23;24.75;;;17.95;;
55720;SDS011;41626;53.098;6.168;2023-04-16T13:43:49;23.73;;;15.88;;
55720;SDS011;41626;53.098;6.168;2023-04-16T13:46:15;25.63;;;16.13;;
55720;SDS011;41626;53.098;6.168;2023-04-16T13:48:40;22.55;;;16.10;;
55720;SDS011;41626;53.098;6.168;2023-04-16T13:51:06;20.63;;;15.88;;
55720;SDS011;41626;53.098;6.168;2023-04-16T13:53:32;22.25;;;14.73;;
55720;SDS011;41626;53.098;6.168;2023-04-16T13:55:58;29.83;;;18.05;;
55720;SDS011;41626;53.098;6.168;2023-04-16T13:58:23;24.50;;;17.93;;
55720;SDS011;41626;53.098;6.168;2023-04-16T14:00:50;26.05;;;18.25;;
55720;SDS011;41626;53.098;6.168;2023-04-16T14:03:16;24.67;;;19.38;;
55720;SDS011;41626;53.098;6.168;2023-04-16T14:05:41;23.35;;;16.23;;
55720;SDS011;41626;53.098;6.168;2023-04-16T14:08:07;21.00;;;16.25;;
55720;SDS011;41626;53.098;6.168;2023-04-16T14:10:34;25.17;;;15.73;;
55720;SDS011;41626;53.098;6.168;2023-04-16T14:13:00;23.05;;;16.77;;
55720;SDS011;41626;53.098;6.168;2023-04-16T14:15:26;20.92;;;16.02;;
55720;SDS011;41626;53.098;6.168;2023-04-16T14:17:53;25.70;;;16.30;;
55720;SDS011;41626;53.098;6.168;2023-04-16T14:20:20;25.83;;;17.08;;
55720;SDS011;41626;53.098;6.168;2023-04-16T14:22:45;24.08;;;16.83;;
55720;SDS011;41626;53.098;6.168;2023-04-16T14:25:11;21.77;;;17.03;;
55720;SDS011;41626;53.098;6.168;2023-04-16T14:27:37;24.40;;;16.37;;
55720;SDS011;41626;53.098;6.168;2023-04-16T14:30:03;27.93;;;17.43;;
55720;SDS011;41626;53.098;6.168;2023-04-16T14:32:30;24.90;;;16.90;;